EDT,Max TemperatureF,Mean TemperatureF,Min TemperatureF,Max Dew PointF,MeanDew PointF,Min DewpointF,Max Humidity, Mean Humidity, Min Humidity, Max Sea Level PressureIn, Mean Sea Level PressureIn, Min Sea Level PressureIn, Max VisibilityMiles, Mean VisibilityMiles, Min VisibilityMiles, Max Wind SpeedMPH, Mean Wind SpeedMPH, Max Gust SpeedMPH,PrecipitationIn, CloudCover, Events, WindDirDegrees
2013-5-1,77,62,47,46,39,34,74,49,23,30.39,30.33,30.27,10,10,10,14,6,21,0.00,3,,105
2013-5-2,80,64,48,41,37,32,59,41,23,30.44,30.35,30.26,10,10,10,16,4,18,0.00,1,,22
2013-5-3,75,63,50,45,41,32,71,51,31,30.34,30.28,30.23,10,10,10,17,8,24,0.00,4,,91
2013-5-4,75,60,45,43,38,31,65,47,28,30.31,30.23,30.14,10,10,10,14,5,20,0.00,1,,77
2013-5-5,77,62,47,44,39,29,71,45,18,30.22,30.15,30.08,10,10,10,17,5,22,0.00,1,,93
2013-5-6,78,61,44,41,35,28,70,44,18,30.19,30.11,30.02,10,10,10,12,5,15,0.00,2,,96
2013-5-7,80,66,51,53,49,43,83,57,31,30.12,30.06,29.99,10,10,10,12,4,16,0.00,5,,75
2013-5-8,69,61,53,61,56,48,93,78,63,30.08,30.01,29.92,10,9,3,14,7,17,0.16,7,Rain,80
2013-5-9,72,62,52,55,52,50,93,71,49,29.95,29.90,29.86,10,10,10,16,5,21,T,5,,157
2013-5-10,74,63,51,60,54,49,96,71,46,29.96,29.88,29.74,10,9,4,21,7,26,0.31,7,Rain-Thunderstorm,153
2013-5-11,64,57,49,58,52,45,90,81,71,29.77,29.71,29.65,10,9,2,23,7,31,0.16,8,Rain,285
2013-5-12,56,47,37,47,35,25,83,58,32,29.89,29.78,29.68,10,10,6,31,13,40,0.03,7,Rain-Snow,267
2013-5-13,51,45,38,33,29,23,70,54,38,30.10,30.00,29.90,10,10,10,12,13,14,0.01,6,Rain-Snow,263
2013-5-14,57,46,34,31,27,20,82,53,24,30.15,30.09,30.01,10,10,10,14,7,21,0.00,3,,242
2013-5-15,79,58,37,55,41,27,71,56,40,29.99,29.74,29.52,10,10,3,31,11,41,0.19,6,Rain-Snow-Thunderstorm,147
2013-5-16,75,62,49,43,40,33,64,46,27,29.96,29.77,29.70,10,10,10,28,13,38,0.00,2,,275
2013-5-17,66,54,41,42,39,36,77,56,34,30.23,30.14,29.99,10,10,10,15,5,20,0.00,5,,320
2013-5-18,72,57,41,47,43,38,89,62,35,30.29,30.22,30.16,10,10,10,14,6,39,0.00,6,,116
2013-5-19,69,62,54,56,53,48,84,73,61,30.19,30.13,30.05,10,10,10,18,8,23,T,7,Rain,128
2013-5-20,82,69,55,64,60,54,93,72,51,30.06,29.97,29.88,10,10,10,9,4,,0.00,6,,99
2013-5-21,86,74,62,69,65,60,100,80,59,29.91,29.82,29.73,10,8,1,21,4,29,0.70,7,Fog-Rain-Thunderstorm,130
2013-5-22,86,75,63,67,64,60,100,73,45,29.80,29.75,29.66,10,9,5,22,7,33,0.01,7,Rain,154
2013-5-23,78,64,50,65,60,51,93,70,47,29.76,29.73,29.70,10,9,2,24,9,31,0.30,8,Rain,226
2013-5-24,50,46,42,50,41,38,93,85,76,30.12,29.98,29.78,10,7,2,22,12,30,0.61,8,Rain-Snow,304
2013-5-25,57,50,43,37,36,34,76,60,43,30.13,30.10,30.08,10,10,10,26,12,39,T,7,Rain,313
2013-5-26,62,53,44,38,35,31,76,54,32,30.16,30.11,30.03,10,10,10,24,13,32,0.00,4,,285
2013-5-27,69,58,47,40,35,29,66,45,24,30.25,30.19,30.14,10,10,10,16,7,26,0.00,2,,268
2013-5-28,65,54,43,57,48,37,100,76,52,30.17,30.10,29.99,10,9,4,17,8,22,0.30,8,Rain,118
2013-5-29,83,71,59,67,62,56,100,78,55,30.01,29.96,29.89,10,7,0,31,5,45,1.13,7,Fog-Rain-Thunderstorm,149
2013-5-30,87,74,61,68,65,61,100,73,46,30.10,30.06,30.01,10,9,1,13,3,18,T,4,Fog,285
2013-5-31,91,78,64,66,63,60,93,65,36,30.08,30.00,29.90,10,10,7,14,4,21,0.00,4,,226